createdAt,value
2018-07-25T00:00:34.797Z,28.27
2018-07-25T00:01:34.755Z,28.31
2018-07-25T00:02:34.814Z,28.30
2018-07-25T00:03:34.675Z,28.41
2018-07-25T00:04:34.681Z,28.41
2018-07-25T00:05:34.590Z,28.37
2018-07-25T00:06:34.549Z,28.39
2018-07-25T00:07:34.506Z,28.39
2018-07-25T00:08:34.465Z,28.39
2018-07-25T00:09:34.424Z,28.41
2018-07-25T00:10:34.383Z,28.37
2018-07-25T00:11:34.341Z,28.29
2018-07-25T00:12:34.300Z,28.27
2018-07-25T00:13:34.258Z,28.33
2018-07-25T00:14:34.218Z,28.25
2018-07-25T00:15:34.175Z,28.31
2018-07-25T00:16:34.134Z,28.18
2018-07-25T00:17:34.095Z,28.21
2018-07-25T00:18:34.052Z,28.24
2018-07-25T00:19:34.010Z,28.24
2018-07-25T00:20:33.968Z,28.24
2018-07-25T00:21:33.932Z,28.17
2018-07-25T00:22:33.889Z,28.17
2018-07-25T00:23:33.844Z,28.15
2018-07-25T00:24:33.802Z,28.17
2018-07-25T00:25:33.766Z,28.04
2018-07-25T00:26:33.720Z,28.03
2018-07-25T00:27:33.685Z,28.07
2018-07-25T00:28:33.641Z,28.07
2018-07-25T00:29:33.596Z,28.03
2018-07-25T00:30:33.557Z,27.96
2018-07-25T00:31:33.512Z,27.96
2018-07-25T00:32:33.471Z,27.99
2018-07-25T00:33:33.431Z,27.96
2018-07-25T00:34:33.389Z,27.90
2018-07-25T00:35:33.347Z,27.82
2018-07-25T00:36:33.305Z,27.78
2018-07-25T00:37:33.270Z,27.87
2018-07-25T00:38:33.222Z,27.84
2018-07-25T00:39:33.180Z,28.02
2018-07-25T00:40:33.139Z,27.93
2018-07-25T00:41:33.098Z,27.94
2018-07-25T00:42:33.057Z,27.96
2018-07-25T00:43:33.014Z,27.94
2018-07-25T00:44:32.973Z,28.03
2018-07-25T00:45:32.932Z,28.04
2018-07-25T00:46:32.890Z,28.03
2018-07-25T00:47:32.848Z,28.17
2018-07-25T00:48:32.807Z,28.12
2018-07-25T00:49:32.766Z,28.14
2018-07-25T00:50:32.724Z,28.15
2018-07-25T00:51:32.684Z,28.22
2018-07-25T00:52:32.642Z,28.17
2018-07-25T00:53:32.603Z,28.27
2018-07-25T00:54:32.558Z,28.25
2018-07-25T00:55:32.517Z,28.36
2018-07-25T00:56:32.475Z,28.31
2018-07-25T00:57:32.433Z,28.29
2018-07-25T00:58:32.393Z,28.34
2018-07-25T00:59:32.350Z,28.39
2018-07-25T01:00:32.308Z,28.27
2018-07-25T01:01:32.268Z,28.29
2018-07-25T01:02:32.229Z,28.29
2018-07-25T01:03:32.183Z,28.40
2018-07-25T01:04:32.142Z,28.31
2018-07-25T01:05:32.101Z,28.34
2018-07-25T01:06:32.059Z,28.40
2018-07-25T01:07:32.017Z,28.39
2018-07-25T01:08:31.976Z,28.39
2018-07-25T01:09:31.934Z,28.54
2018-07-25T01:10:31.893Z,28.49
2018-07-25T01:11:31.850Z,28.43
2018-07-25T01:12:31.813Z,28.43
2018-07-25T01:13:31.768Z,28.44
2018-07-25T01:14:31.725Z,28.52
2018-07-25T01:15:31.684Z,28.54
2018-07-25T01:16:31.643Z,28.55
2018-07-25T01:17:31.651Z,28.44
2018-07-25T01:18:31.560Z,28.51
2018-07-25T01:19:31.517Z,28.54
2018-07-25T01:20:31.476Z,28.36
2018-07-25T01:21:31.435Z,28.36
2018-07-25T01:22:31.394Z,28.37
2018-07-25T01:23:31.351Z,28.34
2018-07-25T01:24:31.309Z,28.51
2018-07-25T01:25:31.268Z,28.34
2018-07-25T01:26:31.227Z,28.40
2018-07-25T01:27:31.184Z,28.34
2018-07-25T01:28:31.143Z,28.34
2018-07-25T01:29:31.102Z,28.22
2018-07-25T01:30:31.060Z,28.22
2018-07-25T01:31:31.018Z,28.21
2018-07-25T01:32:30.977Z,28.15
2018-07-25T01:33:30.935Z,28.09
2018-07-25T01:34:30.894Z,28.18
2018-07-25T01:35:30.859Z,28.12
2018-07-25T01:36:30.810Z,28.19
2018-07-25T01:37:30.769Z,28.21
2018-07-25T01:38:30.730Z,28.27
2018-07-25T01:39:30.685Z,28.22
2018-07-25T01:40:30.643Z,28.37
2018-07-25T01:41:30.602Z,28.31
2018-07-25T01:42:30.561Z,28.27
2018-07-25T01:43:30.518Z,28.25
2018-07-25T01:44:30.477Z,28.22
2018-07-25T01:45:30.435Z,28.15
2018-07-25T01:46:30.394Z,28.15
2018-07-25T01:47:30.359Z,28.12
2018-07-25T01:48:30.310Z,28.14
2018-07-25T01:49:30.269Z,28.18
2018-07-25T01:50:30.226Z,28.12
2018-07-25T01:51:30.188Z,28.12
2018-07-25T01:52:30.143Z,28.21
2018-07-25T01:53:30.102Z,28.22
2018-07-25T01:54:30.063Z,28.12
2018-07-25T01:55:30.022Z,28.03
2018-07-25T01:56:29.977Z,28.03
2018-07-25T01:57:29.935Z,27.96
2018-07-25T01:58:29.894Z,27.92
2018-07-25T01:59:29.855Z,27.93
2018-07-25T02:00:29.810Z,27.96
2018-07-25T02:01:29.793Z,28.00
2018-07-25T02:02:29.729Z,27.92
2018-07-25T02:03:29.685Z,27.93
2018-07-25T02:04:29.643Z,27.88
2018-07-25T02:05:29.601Z,27.92
2018-07-25T02:06:29.564Z,28.00
2018-07-25T02:07:29.517Z,27.93
2018-07-25T02:08:29.476Z,27.82
2018-07-25T02:09:29.435Z,27.84
2018-07-25T02:10:29.393Z,27.87
2018-07-25T02:11:29.351Z,27.77
2018-07-25T02:12:29.309Z,27.77
2018-07-25T02:13:29.267Z,27.78
2018-07-25T02:14:29.227Z,27.87
2018-07-25T02:15:29.183Z,27.75
2018-07-25T02:16:29.142Z,27.84
2018-07-25T02:17:29.100Z,27.81
2018-07-25T02:18:29.059Z,27.74
2018-07-25T02:19:29.037Z,27.70
2018-07-25T02:20:28.975Z,27.77
2018-07-25T02:21:28.934Z,27.79
2018-07-25T02:22:28.892Z,27.78
2018-07-25T02:23:28.851Z,27.72
2018-07-25T02:24:28.808Z,27.70
2018-07-25T02:25:28.767Z,27.69
2018-07-25T02:26:28.725Z,27.75
2018-07-25T02:27:28.682Z,27.72
2018-07-25T02:28:28.641Z,27.74
2018-07-25T02:29:28.600Z,27.77
2018-07-25T02:30:28.558Z,27.77
2018-07-25T02:31:28.516Z,27.75
2018-07-25T02:32:28.474Z,27.72
2018-07-25T02:33:28.433Z,27.81
2018-07-25T02:34:28.393Z,27.78
2018-07-25T02:35:28.351Z,27.84
2018-07-25T02:36:28.307Z,27.90
2018-07-25T02:37:28.265Z,27.92
2018-07-25T02:38:28.224Z,27.74
2018-07-25T02:39:28.186Z,27.85
2018-07-25T02:40:28.150Z,27.79
2018-07-25T02:41:28.099Z,27.77
2018-07-25T02:42:28.114Z,27.65
2018-07-25T02:43:28.014Z,27.70
2018-07-25T02:44:27.991Z,27.65
2018-07-25T02:45:27.932Z,27.67
2018-07-25T02:46:27.890Z,27.77
2018-07-25T02:47:27.847Z,27.77
2018-07-25T02:48:27.856Z,27.67
2018-07-25T02:49:27.765Z,27.69
2018-07-25T02:50:27.722Z,27.79
2018-07-25T02:51:27.687Z,27.79
2018-07-25T02:52:27.638Z,27.77
2018-07-25T02:53:27.598Z,27.78
2018-07-25T02:54:27.556Z,27.77
2018-07-25T02:55:27.512Z,27.74
2018-07-25T02:56:27.471Z,27.69
2018-07-25T02:57:27.436Z,27.70
2018-07-25T02:58:27.388Z,27.79
2018-07-25T02:59:27.348Z,27.70
2018-07-25T03:00:27.304Z,27.72
2018-07-25T03:01:27.262Z,27.66
2018-07-25T03:02:27.220Z,27.77
2018-07-25T03:03:27.178Z,27.78
2018-07-25T03:04:27.136Z,27.67
2018-07-25T03:05:27.098Z,27.74
2018-07-25T03:06:27.053Z,27.82
2018-07-25T03:07:27.013Z,27.82
2018-07-25T03:08:26.968Z,27.81
2018-07-25T03:09:26.927Z,27.79
2018-07-25T03:10:26.886Z,27.69
2018-07-25T03:11:26.843Z,27.74
2018-07-25T03:12:26.801Z,27.62
2018-07-25T03:13:26.761Z,27.65
2018-07-25T03:14:26.718Z,27.57
2018-07-25T03:15:26.675Z,27.51
2018-07-25T03:16:26.633Z,27.54
2018-07-25T03:17:26.592Z,27.60
2018-07-25T03:18:26.552Z,27.55
2018-07-25T03:19:26.508Z,27.62
2018-07-25T03:20:26.466Z,27.55
2018-07-25T03:21:26.426Z,27.59
2018-07-25T03:22:26.384Z,27.65
2018-07-25T03:23:26.340Z,27.66
2018-07-25T03:24:26.302Z,27.59
2018-07-25T03:25:26.257Z,27.47
2018-07-25T03:26:26.217Z,27.47
2018-07-25T03:27:26.173Z,27.54
2018-07-25T03:28:26.133Z,27.59
2018-07-25T03:29:26.089Z,27.60
2018-07-25T03:30:26.049Z,27.51
2018-07-25T03:31:26.069Z,27.50
2018-07-25T03:32:25.963Z,27.55
2018-07-25T03:33:25.924Z,27.47
2018-07-25T03:34:25.880Z,27.55
2018-07-25T03:35:25.837Z,27.55
2018-07-25T03:36:25.795Z,27.67
2018-07-25T03:37:25.815Z,27.65
2018-07-25T03:38:25.712Z,27.65
2018-07-25T03:39:25.669Z,27.63
2018-07-25T03:40:25.627Z,27.44
2018-07-25T03:41:25.586Z,27.46
2018-07-25T03:42:25.544Z,27.32
2018-07-25T03:43:25.501Z,27.37
2018-07-25T03:44:25.459Z,27.43
2018-07-25T03:45:25.418Z,27.31
2018-07-25T03:46:25.376Z,27.28
2018-07-25T03:47:25.334Z,27.31
2018-07-25T03:48:25.292Z,27.32
2018-07-25T03:49:25.272Z,27.29
2018-07-25T03:50:25.211Z,27.27
2018-07-25T03:51:25.166Z,27.32
2018-07-25T03:52:25.125Z,27.27
2018-07-25T03:53:25.082Z,27.19
2018-07-25T03:54:25.041Z,27.22
2018-07-25T03:55:24.999Z,27.31
2018-07-25T03:56:24.957Z,27.28
2018-07-25T03:57:24.933Z,27.25
2018-07-25T03:58:24.874Z,27.28
2018-07-25T03:59:24.831Z,27.17
2018-07-25T04:00:24.788Z,27.22
2018-07-25T04:01:24.752Z,27.13
2018-07-25T04:02:24.705Z,27.22
2018-07-25T04:03:24.664Z,27.14
2018-07-25T04:04:24.621Z,27.21
2018-07-25T04:05:24.579Z,27.27
2018-07-25T04:06:24.539Z,27.29
2018-07-25T04:07:24.494Z,27.27
2018-07-25T04:08:24.510Z,27.31
2018-07-25T04:09:24.411Z,27.29
2018-07-25T04:10:24.374Z,27.31
2018-07-25T04:11:24.327Z,27.25
2018-07-25T04:12:24.285Z,27.28
2018-07-25T04:13:24.244Z,27.43
2018-07-25T04:14:24.202Z,27.41
2018-07-25T04:15:24.160Z,27.46
2018-07-25T04:16:24.121Z,27.40
2018-07-25T04:17:24.076Z,27.46
2018-07-25T04:18:24.035Z,27.41
2018-07-25T04:19:23.996Z,27.41
2018-07-25T04:20:23.950Z,27.37
2018-07-25T04:21:23.909Z,27.34
2018-07-25T04:22:23.867Z,27.37
2018-07-25T04:23:23.824Z,27.29
2018-07-25T04:24:23.783Z,27.31
2018-07-25T04:25:23.743Z,27.27
2018-07-25T04:26:23.699Z,27.29
2018-07-25T04:27:23.656Z,27.24
2018-07-25T04:28:23.615Z,27.28
2018-07-25T04:29:23.573Z,27.31
2018-07-25T04:30:23.533Z,27.32
2018-07-25T04:31:23.488Z,27.32
2018-07-25T04:32:23.446Z,27.37
2018-07-25T04:33:23.405Z,27.37
2018-07-25T04:34:23.363Z,27.41
2018-07-25T04:35:23.320Z,27.37
2018-07-25T04:36:23.279Z,27.36
2018-07-25T04:37:23.237Z,27.41
2018-07-25T04:38:23.195Z,27.40
2018-07-25T04:39:23.152Z,27.41
2018-07-25T04:40:23.111Z,27.34
2018-07-25T04:41:23.069Z,27.37
2018-07-25T04:42:23.030Z,27.34
2018-07-25T04:43:22.984Z,27.29
2018-07-25T04:44:22.945Z,27.36
2018-07-25T04:45:22.903Z,27.31
2018-07-25T04:46:23.022Z,27.31
2018-07-25T04:47:22.815Z,27.31
2018-07-25T04:48:22.775Z,27.31
2018-07-25T04:49:22.732Z,27.37
2018-07-25T04:50:22.691Z,27.36
2018-07-25T04:51:22.648Z,27.43
2018-07-25T04:52:22.606Z,27.46
2018-07-25T04:53:22.565Z,27.47
2018-07-25T04:54:22.523Z,27.44
2018-07-25T04:55:22.480Z,27.40
2018-07-25T04:56:22.438Z,27.44
2018-07-25T04:57:22.397Z,27.51
2018-07-25T04:58:22.360Z,27.57
2018-07-25T04:59:22.313Z,27.66
2018-07-25T05:00:22.270Z,27.65
2018-07-25T05:01:22.229Z,27.72
2018-07-25T05:02:22.187Z,27.90
2018-07-25T05:03:22.144Z,28.07
2018-07-25T05:04:22.102Z,28.12
2018-07-25T05:05:22.062Z,28.17
2018-07-25T05:06:22.025Z,28.34
2018-07-25T05:07:21.980Z,28.37
2018-07-25T05:08:21.934Z,28.59
2018-07-25T05:09:21.895Z,28.68
2018-07-25T05:10:21.851Z,28.90
2018-07-25T05:11:21.808Z,28.88
2018-07-25T05:12:21.766Z,29.09
2018-07-25T05:13:21.725Z,29.16
2018-07-25T05:14:21.683Z,29.16
2018-07-25T05:15:21.640Z,29.19
2018-07-25T05:16:21.607Z,29.24
2018-07-25T05:17:21.558Z,29.41
2018-07-25T05:18:21.515Z,29.53
2018-07-25T05:19:21.473Z,29.65
2018-07-25T05:20:21.431Z,29.64
2018-07-25T05:21:21.390Z,29.65
2018-07-25T05:22:21.348Z,29.63
2018-07-25T05:23:21.342Z,29.58
2018-07-25T05:24:21.271Z,29.55
2018-07-25T05:25:21.223Z,29.55
2018-07-25T05:26:21.181Z,29.63
2018-07-25T05:27:21.139Z,29.60
2018-07-25T05:28:21.098Z,29.60
2018-07-25T05:29:21.056Z,29.64
2018-07-25T05:30:21.018Z,29.48
2018-07-25T05:31:20.971Z,29.52
2018-07-25T05:32:20.939Z,29.41
2018-07-25T05:33:20.889Z,29.52
2018-07-25T05:34:20.849Z,29.64
2018-07-25T05:35:20.809Z,29.86
2018-07-25T05:36:20.765Z,30.11
2018-07-25T05:37:20.724Z,30.22
2018-07-25T05:38:20.682Z,30.35
2018-07-25T05:39:20.645Z,30.55
2018-07-25T05:40:20.598Z,30.75
2018-07-25T05:41:20.557Z,30.75
2018-07-25T05:42:20.518Z,30.89
2018-07-25T05:43:20.474Z,31.06
2018-07-25T05:44:20.432Z,31.16
2018-07-25T05:45:20.392Z,31.20
2018-07-25T05:46:20.400Z,31.35
2018-07-25T05:47:20.308Z,31.38
2018-07-25T05:48:20.267Z,31.53
2018-07-25T05:49:20.233Z,31.57
2018-07-25T05:50:20.184Z,31.65
2018-07-25T05:51:20.143Z,31.78
2018-07-25T05:52:20.101Z,31.80
2018-07-25T05:53:20.072Z,31.93
2018-07-25T05:54:20.022Z,31.96
2018-07-25T05:55:19.977Z,31.95
2018-07-25T05:56:19.937Z,32.01
2018-07-25T05:57:19.895Z,32.14
2018-07-25T05:58:19.854Z,32.23
2018-07-25T05:59:19.812Z,32.29
2018-07-25T06:00:19.771Z,32.28
2018-07-25T06:01:19.730Z,32.32
2018-07-25T06:02:19.691Z,32.40
2018-07-25T06:03:19.835Z,32.43
2018-07-25T06:04:19.644Z,32.45
2018-07-25T06:05:19.566Z,32.51
2018-07-25T06:06:19.525Z,32.51
2018-07-25T06:07:19.484Z,32.60
2018-07-25T06:08:19.443Z,32.63
2018-07-25T06:09:19.403Z,32.60
2018-07-25T06:10:19.362Z,32.69
2018-07-25T06:11:19.320Z,32.63
2018-07-25T06:12:19.279Z,32.67
2018-07-25T06:13:19.242Z,32.62
2018-07-25T06:14:19.249Z,32.62
2018-07-25T06:15:19.156Z,32.67
2018-07-25T06:16:19.116Z,32.78
2018-07-25T06:17:19.074Z,32.81
2018-07-25T06:18:19.034Z,32.72
2018-07-25T06:19:18.993Z,32.84
2018-07-25T06:20:18.959Z,32.79
2018-07-25T06:21:18.914Z,32.81
2018-07-25T06:22:18.873Z,32.85
2018-07-25T06:23:18.830Z,32.92
2018-07-25T06:24:18.789Z,32.94
2018-07-25T06:25:18.749Z,32.93
2018-07-25T06:26:18.708Z,32.96
2018-07-25T06:27:18.667Z,32.93
2018-07-25T06:28:18.626Z,32.94
2018-07-25T06:29:18.587Z,33.06
2018-07-25T06:30:18.545Z,33.07
2018-07-25T06:31:18.522Z,33.09
2018-07-25T06:32:18.467Z,33.14
2018-07-25T06:33:18.423Z,33.09
2018-07-25T06:34:18.383Z,33.19
2018-07-25T06:35:18.341Z,33.16
2018-07-25T06:36:18.301Z,33.18
2018-07-25T06:37:18.261Z,33.22
2018-07-25T06:38:18.221Z,33.23
2018-07-25T06:39:18.179Z,33.37
2018-07-25T06:40:18.139Z,33.19
2018-07-25T06:41:18.098Z,33.34
2018-07-25T06:42:18.058Z,33.31
2018-07-25T06:43:18.027Z,33.28
2018-07-25T06:44:17.977Z,33.39
2018-07-25T06:45:17.936Z,33.39
2018-07-25T06:46:17.947Z,33.45
2018-07-25T06:47:17.855Z,33.51
2018-07-25T06:48:17.815Z,33.45
2018-07-25T06:49:17.774Z,33.53
2018-07-25T06:50:17.734Z,33.61
2018-07-25T06:51:17.693Z,33.68
2018-07-25T06:52:17.653Z,33.69
2018-07-25T06:53:17.612Z,33.71
2018-07-25T06:54:17.572Z,33.72
2018-07-25T06:55:17.534Z,33.76
2018-07-25T06:56:17.494Z,33.88
2018-07-25T06:57:17.477Z,33.94
2018-07-25T06:58:17.417Z,34.00
2018-07-25T06:59:17.370Z,33.94
2018-07-25T07:00:17.328Z,34.00
2018-07-25T07:01:17.292Z,34.10
2018-07-25T07:02:17.250Z,34.16
2018-07-25T07:03:17.212Z,34.31
2018-07-25T07:04:17.173Z,34.47
2018-07-25T07:05:17.128Z,34.50
2018-07-25T07:06:17.089Z,34.56
2018-07-25T07:07:17.048Z,34.62
2018-07-25T07:08:17.008Z,34.77
2018-07-25T07:09:16.968Z,34.91
2018-07-25T07:10:16.931Z,35.00
2018-07-25T07:11:16.887Z,35.21
2018-07-25T07:12:16.848Z,35.31
2018-07-25T07:13:16.807Z,35.41
2018-07-25T07:14:16.776Z,35.58
2018-07-25T07:15:16.741Z,35.63
2018-07-25T07:16:16.696Z,35.80
2018-07-25T07:17:16.649Z,35.87
2018-07-25T07:18:16.607Z,36.07
2018-07-25T07:19:16.566Z,36.17
2018-07-25T07:20:16.526Z,36.38
2018-07-25T07:21:16.490Z,36.47
2018-07-25T07:22:16.446Z,36.59
2018-07-25T07:23:16.406Z,36.68
2018-07-25T07:24:16.368Z,36.78
2018-07-25T07:25:16.326Z,36.87
2018-07-25T07:26:16.287Z,37.07
2018-07-25T07:27:16.245Z,37.24
2018-07-25T07:28:16.207Z,37.31
2018-07-25T07:29:16.167Z,37.49
2018-07-25T07:30:16.129Z,37.67
2018-07-25T07:31:16.096Z,37.75
2018-07-25T07:32:16.047Z,37.81
2018-07-25T07:33:16.007Z,37.88
2018-07-25T07:34:15.967Z,38.01
2018-07-25T07:35:15.926Z,38.11
2018-07-25T07:36:15.887Z,38.23
2018-07-25T07:37:15.922Z,38.34
2018-07-25T07:38:15.809Z,38.46
2018-07-25T07:39:15.767Z,38.52
2018-07-25T07:40:15.730Z,38.66
2018-07-25T07:41:15.688Z,38.72
2018-07-25T07:42:15.649Z,38.75
2018-07-25T07:43:15.608Z,38.86
2018-07-25T07:44:15.609Z,38.95
2018-07-25T07:45:15.548Z,38.96
2018-07-25T07:46:15.494Z,39.16
2018-07-25T07:47:15.449Z,39.28
2018-07-25T07:48:15.414Z,39.40
2018-07-25T07:49:15.371Z,39.41
2018-07-25T07:50:15.331Z,39.54
2018-07-25T07:51:15.291Z,39.64
2018-07-25T07:52:15.251Z,39.72
2018-07-25T07:53:15.213Z,39.79
2018-07-25T07:54:15.177Z,39.84
2018-07-25T07:55:15.133Z,40.00
2018-07-25T07:56:15.094Z,39.98
2018-07-25T07:57:15.055Z,40.10
2018-07-25T07:58:15.116Z,40.23
2018-07-25T07:59:15.018Z,40.16
2018-07-25T08:00:14.942Z,40.31
2018-07-25T08:01:14.898Z,40.50
2018-07-25T08:02:14.858Z,40.57
2018-07-25T08:03:14.819Z,40.61
2018-07-25T08:04:14.779Z,40.76
2018-07-25T08:05:14.741Z,40.70
2018-07-25T08:06:14.702Z,40.82
2018-07-25T08:07:14.662Z,40.84
2018-07-25T08:08:14.623Z,40.82
2018-07-25T08:09:14.585Z,41.01
2018-07-25T08:10:14.545Z,41.14
2018-07-25T08:11:14.506Z,41.13
2018-07-25T08:12:14.468Z,41.29
2018-07-25T08:13:14.434Z,41.29
2018-07-25T08:14:14.390Z,41.44
2018-07-25T08:15:14.350Z,41.44
2018-07-25T08:16:14.312Z,41.47
2018-07-25T08:17:14.273Z,41.52
2018-07-25T08:18:14.241Z,41.57
2018-07-25T08:19:14.195Z,41.67
2018-07-25T08:20:14.157Z,41.83
2018-07-25T08:21:14.208Z,41.73
2018-07-25T08:22:14.083Z,41.94
2018-07-25T08:23:14.047Z,41.91
2018-07-25T08:24:14.003Z,41.94
2018-07-25T08:25:13.967Z,42.02
2018-07-25T08:26:13.925Z,42.02
2018-07-25T08:27:13.886Z,42.05
2018-07-25T08:28:13.848Z,42.08
2018-07-25T08:29:13.810Z,42.12
2018-07-25T08:30:13.772Z,42.11
2018-07-25T08:31:13.733Z,42.13
2018-07-25T08:32:13.695Z,42.17
2018-07-25T08:33:13.657Z,42.16
2018-07-25T08:34:13.621Z,42.20
2018-07-25T08:35:13.580Z,42.08
2018-07-25T08:36:13.547Z,42.08
2018-07-25T08:37:13.504Z,42.16
2018-07-25T08:38:13.468Z,42.06
2018-07-25T08:39:13.427Z,42.06
2018-07-25T08:40:13.390Z,42.04
2018-07-25T08:41:13.383Z,41.96
2018-07-25T08:42:13.314Z,41.96
2018-07-25T08:43:13.276Z,41.98
2018-07-25T08:44:13.241Z,41.86
2018-07-25T08:45:13.200Z,41.33
2018-07-25T08:46:13.163Z,40.64
2018-07-25T08:47:13.130Z,39.97
2018-07-25T08:48:13.088Z,39.54
2018-07-25T08:49:13.050Z,39.36
2018-07-25T08:50:13.014Z,39.48
2018-07-25T08:51:12.975Z,39.48
2018-07-25T08:52:12.935Z,39.59
2018-07-25T08:53:12.897Z,39.91
2018-07-25T08:54:12.862Z,40.07
2018-07-25T08:55:12.824Z,40.00
2018-07-25T08:56:12.784Z,39.50
2018-07-25T08:57:12.747Z,38.90
2018-07-25T08:58:12.709Z,38.63
2018-07-25T08:59:12.680Z,38.71
2018-07-25T09:00:12.634Z,38.91
2018-07-25T09:01:12.595Z,39.25
2018-07-25T09:02:12.557Z,39.51
2018-07-25T09:03:12.519Z,39.73
2018-07-25T09:04:12.481Z,40.00
2018-07-25T09:05:12.442Z,40.08
2018-07-25T09:06:12.406Z,40.08
2018-07-25T09:07:12.368Z,40.31
2018-07-25T09:08:12.330Z,40.34
2018-07-25T09:09:12.294Z,40.43
2018-07-25T09:10:12.256Z,40.43
2018-07-25T09:11:12.232Z,40.50
2018-07-25T09:12:12.187Z,40.53
2018-07-25T09:13:12.144Z,40.55
2018-07-25T09:14:12.107Z,40.57
2018-07-25T09:15:12.069Z,40.57
2018-07-25T09:16:12.032Z,40.51
2018-07-25T09:17:11.996Z,40.41
2018-07-25T09:18:11.962Z,40.23
2018-07-25T09:19:11.920Z,39.86
2018-07-25T09:20:11.883Z,39.78
2018-07-25T09:21:11.846Z,39.73
2018-07-25T09:22:11.809Z,39.62
2018-07-25T09:23:11.771Z,39.22
2018-07-25T09:24:11.734Z,38.68
2018-07-25T09:25:11.832Z,38.01
2018-07-25T09:26:11.660Z,37.49
2018-07-25T09:27:11.622Z,36.94
2018-07-25T09:28:11.585Z,36.81
2018-07-25T09:29:11.548Z,36.76
2018-07-25T09:30:11.510Z,36.94
2018-07-25T09:31:11.476Z,37.20
2018-07-25T09:32:11.435Z,37.27
2018-07-25T09:33:11.397Z,37.41
2018-07-25T09:34:11.450Z,37.41
2018-07-25T09:35:11.322Z,37.37
2018-07-25T09:36:11.284Z,37.34
2018-07-25T09:37:11.248Z,37.29
2018-07-25T09:38:11.210Z,37.25
2018-07-25T09:39:11.172Z,37.06
2018-07-25T09:40:11.135Z,36.95
2018-07-25T09:41:11.098Z,36.90
2018-07-25T09:42:11.060Z,36.75
2018-07-25T09:43:11.027Z,36.46
2018-07-25T09:44:10.985Z,36.20
2018-07-25T09:45:10.952Z,35.85
2018-07-25T09:46:10.911Z,35.74
2018-07-25T09:47:10.873Z,35.43
2018-07-25T09:48:10.835Z,35.22
2018-07-25T09:49:10.810Z,35.07
2018-07-25T09:50:10.761Z,34.81
2018-07-25T09:51:10.722Z,34.58
2018-07-25T09:52:10.685Z,34.44
2018-07-25T09:53:10.779Z,34.31
2018-07-25T09:54:10.613Z,34.06
2018-07-25T09:55:10.572Z,34.08
2018-07-25T09:56:10.534Z,33.84
2018-07-25T09:57:10.497Z,33.84
2018-07-25T09:58:10.460Z,33.63
2018-07-25T09:59:10.446Z,33.53
2018-07-25T10:00:10.388Z,33.45
2018-07-25T10:01:10.370Z,33.32
2018-07-25T10:02:10.308Z,33.23
2018-07-25T10:03:10.292Z,33.18
2018-07-25T10:04:10.230Z,33.14
2018-07-25T10:05:10.192Z,33.01
2018-07-25T10:06:10.184Z,32.96
2018-07-25T10:07:10.170Z,32.94
2018-07-25T10:08:10.077Z,32.82
2018-07-25T10:09:10.041Z,32.70
2018-07-25T10:10:10.001Z,32.79
2018-07-25T10:11:09.981Z,32.63
2018-07-25T10:12:09.923Z,32.69
2018-07-25T10:13:09.885Z,32.60
2018-07-25T10:14:09.850Z,32.62
2018-07-25T10:15:09.868Z,32.62
2018-07-25T10:16:09.775Z,32.60
2018-07-25T10:17:09.730Z,32.59
2018-07-25T10:18:09.691Z,32.56
2018-07-25T10:19:09.652Z,32.51
2018-07-25T10:20:09.613Z,32.55
2018-07-25T10:21:09.575Z,32.51
2018-07-25T10:22:09.537Z,32.44
2018-07-25T10:23:09.496Z,32.37
2018-07-25T10:24:09.460Z,32.38
2018-07-25T10:25:09.419Z,32.41
2018-07-25T10:26:09.380Z,32.35
2018-07-25T10:27:09.430Z,32.37
2018-07-25T10:28:09.302Z,32.38
2018-07-25T10:29:09.276Z,32.25
2018-07-25T10:30:09.225Z,32.29
2018-07-25T10:31:09.185Z,32.38
2018-07-25T10:32:09.150Z,32.30
2018-07-25T10:33:09.108Z,32.29
2018-07-25T10:34:09.069Z,32.23
2018-07-25T10:35:09.031Z,32.21
2018-07-25T10:36:08.990Z,32.19
2018-07-25T10:37:08.951Z,32.21
2018-07-25T10:38:08.913Z,32.18
2018-07-25T10:39:08.953Z,32.18
2018-07-25T10:40:08.835Z,32.00
2018-07-25T10:41:08.796Z,32.11
2018-07-25T10:42:08.756Z,32.08
2018-07-25T10:43:08.717Z,31.95
2018-07-25T10:44:08.680Z,32.11
2018-07-25T10:45:08.639Z,32.00
2018-07-25T10:46:08.601Z,32.00
2018-07-25T10:47:08.560Z,31.99
2018-07-25T10:48:08.521Z,32.00
2018-07-25T10:49:08.482Z,32.00
2018-07-25T10:50:08.444Z,31.93
2018-07-25T10:51:08.403Z,32.01
2018-07-25T10:52:08.364Z,31.99
2018-07-25T10:53:08.328Z,32.01
2018-07-25T10:54:08.286Z,31.96
2018-07-25T10:55:08.247Z,31.86
2018-07-25T10:56:08.208Z,31.91
2018-07-25T10:57:08.169Z,31.91
2018-07-25T10:58:08.130Z,31.81
2018-07-25T10:59:08.090Z,31.91
2018-07-25T11:00:08.051Z,31.88
2018-07-25T11:01:08.012Z,31.86
2018-07-25T11:02:07.975Z,31.85
2018-07-25T11:03:07.933Z,31.91
2018-07-25T11:04:07.902Z,31.89
2018-07-25T11:05:07.855Z,31.85
2018-07-25T11:06:07.815Z,31.89
2018-07-25T11:07:07.776Z,31.92
2018-07-25T11:08:07.736Z,31.92
2018-07-25T11:09:07.698Z,31.89
2018-07-25T11:10:07.659Z,31.88
2018-07-25T11:11:07.621Z,31.88
2018-07-25T11:12:07.580Z,31.91
2018-07-25T11:13:07.541Z,31.86
2018-07-25T11:14:07.501Z,31.84
2018-07-25T11:15:07.462Z,31.88
2018-07-25T11:16:07.423Z,31.92
2018-07-25T11:17:07.384Z,31.89
2018-07-25T11:18:07.345Z,31.91
2018-07-25T11:19:07.305Z,31.84
2018-07-25T11:20:07.266Z,31.76
2018-07-25T11:21:07.234Z,31.78
2018-07-25T11:22:07.188Z,31.86
2018-07-25T11:23:07.206Z,31.80
2018-07-25T11:24:07.109Z,31.78
2018-07-25T11:25:07.070Z,31.72
2018-07-25T11:26:07.031Z,31.78
2018-07-25T11:27:06.990Z,31.68
2018-07-25T11:28:06.951Z,31.70
2018-07-25T11:29:06.912Z,31.73
2018-07-25T11:30:06.873Z,31.68
2018-07-25T11:31:06.835Z,31.57
2018-07-25T11:32:06.793Z,31.65
2018-07-25T11:33:06.858Z,31.61
2018-07-25T11:34:06.716Z,31.57
2018-07-25T11:35:06.675Z,31.68
2018-07-25T11:36:06.637Z,31.61
2018-07-25T11:37:06.597Z,31.56
2018-07-25T11:38:06.576Z,31.54
2018-07-25T11:39:06.518Z,31.50
2018-07-25T11:40:06.479Z,31.54
2018-07-25T11:41:06.440Z,31.53
2018-07-25T11:42:06.400Z,31.56
2018-07-25T11:43:06.360Z,31.57
2018-07-25T11:44:06.378Z,31.50
2018-07-25T11:45:06.282Z,31.58
2018-07-25T11:46:06.243Z,31.58
2018-07-25T11:47:06.202Z,31.54
2018-07-25T11:48:06.163Z,31.56
2018-07-25T11:49:06.226Z,31.63
2018-07-25T11:50:06.134Z,31.53
2018-07-25T11:51:06.045Z,31.53
2018-07-25T11:52:06.006Z,31.53
2018-07-25T11:53:05.970Z,31.56
2018-07-25T11:54:05.927Z,31.56
2018-07-25T11:55:05.887Z,31.54
2018-07-25T11:56:05.847Z,31.53
2018-07-25T11:57:05.808Z,31.51
2018-07-25T11:58:05.773Z,31.47
2018-07-25T11:59:05.729Z,31.46
2018-07-25T12:00:05.690Z,31.46
2018-07-25T12:01:05.665Z,31.51
2018-07-25T12:02:05.611Z,31.46
2018-07-25T12:03:05.571Z,31.34
2018-07-25T12:04:05.532Z,31.39
2018-07-25T12:05:05.492Z,31.50
2018-07-25T12:06:05.453Z,31.43
2018-07-25T12:07:05.414Z,31.39
2018-07-25T12:08:05.374Z,31.35
2018-07-25T12:09:05.335Z,31.36
2018-07-25T12:10:05.346Z,31.35
2018-07-25T12:11:05.255Z,31.38
2018-07-25T12:12:05.216Z,31.39
2018-07-25T12:13:05.268Z,31.39
2018-07-25T12:14:05.138Z,31.36
2018-07-25T12:15:05.097Z,31.39
2018-07-25T12:16:05.058Z,31.47
2018-07-25T12:17:05.019Z,31.44
2018-07-25T12:18:04.980Z,31.47
2018-07-25T12:19:04.939Z,31.44
2018-07-25T12:20:04.899Z,31.43
2018-07-25T12:21:04.860Z,31.39
2018-07-25T12:22:04.821Z,31.50
2018-07-25T12:23:04.834Z,31.35
2018-07-25T12:24:04.741Z,31.39
2018-07-25T12:25:04.702Z,31.44
2018-07-25T12:26:04.663Z,31.36
2018-07-25T12:27:04.632Z,31.35
2018-07-25T12:28:04.584Z,31.36
2018-07-25T12:29:04.545Z,31.34
2018-07-25T12:30:04.506Z,31.34
2018-07-25T12:31:04.466Z,31.38
2018-07-25T12:32:04.450Z,31.28
2018-07-25T12:33:04.396Z,31.35
2018-07-25T12:34:04.347Z,31.29
2018-07-25T12:35:04.308Z,31.34
2018-07-25T12:36:04.267Z,31.23
2018-07-25T12:37:04.227Z,31.28
2018-07-25T12:38:04.189Z,31.32
2018-07-25T12:39:04.156Z,31.29
2018-07-25T12:40:04.109Z,31.25
2018-07-25T12:41:04.070Z,31.25
2018-07-25T12:42:04.032Z,31.31
2018-07-25T12:43:03.991Z,31.23
2018-07-25T12:44:03.951Z,31.25
2018-07-25T12:45:03.912Z,31.20
2018-07-25T12:46:03.872Z,31.20
2018-07-25T12:47:03.832Z,31.26
2018-07-25T12:48:03.793Z,31.25
2018-07-25T12:49:03.754Z,31.25
2018-07-25T12:50:03.725Z,31.28
2018-07-25T12:51:03.673Z,31.23
2018-07-25T12:52:03.634Z,31.23